This is the latest recevied weather packets stored in our database for station/object KA8DUX-2. If no packets are shown the sender has not sent any weather packets the latest 10 day(s).
| Time | Temp. | Humidity | Pressure | Rain* | Wind** | Luminosity | Snow |
|---|---|---|---|---|---|---|---|
| 1777653267 | 6.67° C | 60% | 1014.2 hPa | 0 mm | - | 337 W/m² | - |
| 1777652964 | 7.22° C | 59% | 1014.3 hPa | 0 mm | - | 421 W/m² | - |
| 1777652660 | 7.22° C | 60% | 1014.3 hPa | 0 mm | - | 360 W/m² | - |
| 1777652358 | 7.78° C | 57% | 1014.2 hPa | 0 mm | - | 278 W/m² | - |
| 1777652055 | 7.78° C | 60% | 1014.3 hPa | 0 mm | - | 339 W/m² | - |
| 1777651751 | 7.78° C | 59% | 1014.5 hPa | 0 mm | - | 337 W/m² | - |
| 1777651448 | 7.78° C | 57% | 1014.3 hPa | 0 mm | - | 322 W/m² | - |
| 1777651145 | 6.67° C | 60% | 1014.4 hPa | 0 mm | - | 509 W/m² | - |
| 1777650842 | 6.67° C | 60% | 1014.3 hPa | 0 mm | - | 319 W/m² | - |
| 1777650539 | 6.11° C | 60% | 1014.3 hPa | 0 mm | - | 247 W/m² | - |
| 1777650236 | 6.67° C | 59% | 1014.3 hPa | 0 mm | - | 251 W/m² | - |
| 1777649933 | 6.67° C | 59% | 1014.4 hPa | 0 mm | - | 262 W/m² | - |
| 1777649630 | 6.67° C | 60% | 1014.4 hPa | 0 mm | - | 259 W/m² | - |
| 1777649326 | 6.67° C | 60% | 1014.3 hPa | 0 mm | - | 278 W/m² | - |
| 1777649024 | 6.67° C | 62% | 1014.3 hPa | 0 mm | - | 445 W/m² | - |
| 1777648721 | 6.11° C | 66% | 1014.4 hPa | 0 mm | - | 333 W/m² | - |
| 1777648417 | 5.56° C | 65% | 1014.4 hPa | 0 mm | - | 203 W/m² | - |
| 1777648114 | 5.56° C | 67% | 1014.5 hPa | 0 mm | - | 155 W/m² | - |
| 1777647810 | 5.56° C | 67% | 1014.2 hPa | 0 mm | - | 210 W/m² | - |
| 1777647506 | 5.56° C | 67% | 1014.4 hPa | 0 mm | - | 190 W/m² | - |
| 1777647203 | 5° C | 69% | 1014.2 hPa | 0 mm | - | 194 W/m² | - |
| 1777646900 | 5.56° C | 69% | 1014.2 hPa | 0 mm | - | 222 W/m² | - |
| 1777646596 | 5° C | 70% | 1014.3 hPa | 0 mm | - | 210 W/m² | - |
| 1777646292 | 5° C | 70% | 1014.2 hPa | 0 mm | - | 212 W/m² | - |
| 1777645990 | 5° C | 71% | 1014 hPa | 0 mm | - | 207 W/m² | - |
* Rain latest hour (hover to see other rain measurements)
** Current wind speed in m/s (hover to see current wind gust speed)